Main page
METAR-TAF:

METAR-TAF

Airports :

Ghat Airport

Ghat, Libya

latitude: 25-08N, longitude: 010-09E, elevation: 699 m

METAR: missing

Time: 09:26 (07:26 UTC)

Forecast

The report was made 2 hours and 26 minutes ago, at 05:00 UTC
Forecast valid from 25 at 06 UTC to 26 at 06 UTC
Wind 2 kt from variable directions
Visibility 10 km or more
no clouds below 1500 m and no cumulonimbus
Becoming
from 25 at 14 UTC to 25 at 16 UTC
Wind 10 kt from the North
Becoming
from 25 at 20 UTC to 25 at 22 UTC
Wind 2 kt from variable directions

TAF: HLGT 250500Z 2506/2606 VRB02KT CAVOK BECMG 2514/2516 36010KT BECMG 2520/2522 VRB02KT

Weather observations and forecasts of more than 4000 airports (METAR and TAF reports).

The available stations are represented by yellow and red dots on the map.

Hover mouse over dot to see the name of the station.

Then click to see weather observations and forecasts.

To change the map : click on the green buttons with a black cross to zoom in, on the green button with a dash to zoom out, or on the green arrows for adjacent maps.


METAR-TAF: